地図

経路データ

SID SEASON NUMBER BASIN SUBBASIN NAME ISO_TIME NATURE LAT LON WMO_WIND WMO_PRES WMO_AGENCY TRACK_TYPE DIST2LAND LANDFALL IFLAG USA_AGENCY USA_ATCF_ID USA_LAT USA_LON USA_RECORD USA_STATUS USA_WIND USA_PRES USA_SSHS USA_R34_NE USA_R34_SE USA_R34_SW USA_R34_NW USA_R50_NE USA_R50_SE USA_R50_SW USA_R50_NW USA_R64_NE USA_R64_SE USA_R64_SW USA_R64_NW USA_POCI USA_ROCI USA_RMW USA_EYE TOKYO_LAT TOKYO_LON TOKYO_GRADE TOKYO_WIND TOKYO_PRES TOKYO_R50_DIR TOKYO_R50_LONG TOKYO_R50_SHORT TOKYO_R30_DIR TOKYO_R30_LONG TOKYO_R30_SHORT TOKYO_LAND CMA_LAT CMA_LON CMA_CAT CMA_WIND CMA_PRES HKO_LAT HKO_LON HKO_CAT HKO_WIND HKO_PRES NEWDELHI_LAT NEWDELHI_LON NEWDELHI_GRADE NEWDELHI_WIND NEWDELHI_PRES NEWDELHI_CI NEWDELHI_DP NEWDELHI_POCI REUNION_LAT REUNION_LON REUNION_TYPE REUNION_WIND REUNION_PRES REUNION_TNUM REUNION_CI REUNION_RMW REUNION_R34_NE REUNION_R34_SE REUNION_R34_SW REUNION_R34_NW REUNION_R50_NE REUNION_R50_SE REUNION_R50_SW REUNION_R50_NW REUNION_R64_NE REUNION_R64_SE REUNION_R64_SW REUNION_R64_NW BOM_LAT BOM_LON BOM_TYPE BOM_WIND BOM_PRES BOM_TNUM BOM_CI BOM_RMW BOM_R34_NE BOM_R34_SE BOM_R34_SW BOM_R34_NW BOM_R50_NE BOM_R50_SE BOM_R50_SW BOM_R50_NW BOM_R64_NE BOM_R64_SE BOM_R64_SW BOM_R64_NW BOM_ROCI BOM_POCI BOM_EYE BOM_POS_METHOD BOM_PRES_METHOD NADI_LAT NADI_LON NADI_CAT NADI_WIND NADI_PRES WELLINGTON_LAT WELLINGTON_LON WELLINGTON_WIND WELLINGTON_PRES DS824_LAT DS824_LON DS824_STAGE DS824_WIND DS824_PRES TD9636_LAT TD9636_LON TD9636_STAGE TD9636_WIND TD9636_PRES TD9635_LAT TD9635_LON TD9635_WIND TD9635_PRES TD9635_ROCI NEUMANN_LAT NEUMANN_LON NEUMANN_CLASS NEUMANN_WIND NEUMANN_PRES MLC_LAT MLC_LON MLC_CLASS MLC_WIND MLC_PRES USA_GUST BOM_GUST BOM_GUST_PER REUNION_GUST REUNION_GUST_PER USA_SEAHGT USA_SEARAD_NE USA_SEARAD_SE USA_SEARAD_SW USA_SEARAD_NW STORM_SPEED STORM_DIR
1999310N09138 1999 96 WP MM FRANKIE 1999-11-05 18:00:00 NR 9.40000 137.700 main 1155 1153 O_____________ jtwc_wp WP291999 9.40000 137.700 15 -1 15 302
1999310N09138 1999 96 WP MM FRANKIE 1999-11-05 21:00:00 NR 9.78779 137.060 main 1178 1113 P_____________ WP291999 9.78779 137.060 17 -1 15 302
1999310N09138 1999 96 WP MM FRANKIE 1999-11-06 00:00:00 NR 10.2000 136.400 main 1113 1050 O_____________ jtwc_wp WP291999 10.2000 136.400 20 -1 16 302
1999310N09138 1999 96 WP MM FRANKIE 1999-11-06 03:00:00 NR 10.6372 135.695 main 1050 974 P_____________ WP291999 10.6372 135.695 22 -1 17 298
1999310N09138 1999 96 WP MM FRANKIE 1999-11-06 06:00:00 NR 11.0000 134.900 main 974 883 O_____________ jtwc_wp WP291999 11.0000 134.900 25 -1 18 289
1999310N09138 1999 96 WP MM FRANKIE 1999-11-06 09:00:00 NR 11.2329 133.928 main 872 780 P_____________ WP291999 11.2329 133.928 25 -1 19 279
1999310N09138 1999 96 WP MM FRANKIE 1999-11-06 12:00:00 NR 11.3000 133.000 main 780 715 O_____________ jtwc_wp WP291999 11.3000 133.000 25 -1 16 268
1999310N09138 1999 96 WP MM FRANKIE 1999-11-06 15:00:00 NR 11.1871 132.332 main 704 645 P_____________ WP291999 11.1871 132.332 25 -1 12 256
1999310N09138 1999 96 WP MM FRANKIE 1999-11-06 18:00:00 NR 11.0000 131.800 main 645 590 O_____________ jtwc_wp WP291999 11.0000 131.800 25 -1 10 255
1999310N09138 1999 96 WP MM FRANKIE 1999-11-06 21:00:00 NR 10.9222 131.308 main 590 535 P_____________ WP291999 10.9222 131.308 25 -1 10 258
1999310N09138 1999 96 WP MM FRANKIE 1999-11-07 00:00:00 TS 10.8000 130.800 main 535 465 O_O___________ jtwc_wp WP291999 10.8000 130.800 25 -1 10.8000 130.800 1 23 1002 12 254
1999310N09138 1999 96 WP MM FRANKIE 1999-11-07 03:00:00 TS 10.5844 130.146 main 455 386 P_P___________ WP291999 10.4852 130.142 25 -1 10.7827 130.152 1 23 1001 13 254
1999310N09138 1999 96 WP MM FRANKIE 1999-11-07 06:00:00 TS 10.4250 129.500 main 386 339 O_OO__________ jtwc_wp WP291999 10.2000 129.500 25 -1 10.8000 129.500 1 23 1000 10.2000 129.500 TD 25 1000 12 264
1999310N09138 1999 96 WP MM FRANKIE 1999-11-07 09:00:00 TS 10.4703 128.949 main 329 287 P_PP__________ WP291999 10.1020 129.080 25 -1 10.8774 128.843 1 26 1000 10.3927 128.903 TD 25 1000 11 279
1999310N09138 1999 96 WP MM FRANKIE 1999-11-07 12:00:00 TS 10.6000 128.373 main 287 208 O_OO__________ jtwc_wp WP291999 10.2000 128.600 25 -1 11.0000 128.200 1 29 1000 10.6000 128.300 TD 25 1000 13 286
1999310N09138 1999 96 WP MM FRANKIE 1999-11-07 15:00:00 TS 10.8276 127.681 main 208 131 P_PP__________ WP291999 10.5131 127.751 25 -1 11.1348 127.600 1 29 1000 10.8349 127.692 TD 27 997 14 290
1999310N09138 1999 96 WP MM FRANKIE 1999-11-07 18:00:00 TS 11.1000 127.000 main 131 83 O_OO__________ jtwc_wp WP291999 10.9000 126.900 25 -1 11.3000 127.000 1 29 1000 11.1000 127.100 TD 30 994 13 293
1999310N09138 1999 96 WP MM FRANKIE 1999-11-07 21:00:00 TS 11.3447 126.450 main 73 39 P_PP__________ WP291999 11.1266 126.464 27 -1 11.5000 126.335 1 29 1000 11.4073 126.550 TD 30 994 12 295
1999310N09138 1999 96 WP MM FRANKIE 1999-11-08 00:00:00 TS 11.6000 125.900 main 39 0 O_OO__________ jtwc_wp WP291999 11.4000 126.000 30 -1 11.7000 125.700 1 29 1000 11.7000 126.000 TD 30 994 13 295
1999310N09138 1999 96 WP MM FRANKIE 1999-11-08 03:00:00 TS 11.9160 125.212 main 0 0 P_PP__________ WP291999 11.9534 125.051 32 -1 11.8648 125.177 1 29 997 11.9299 125.407 TD 30 994 15 293
1999310N09138 1999 96 WP MM FRANKIE 1999-11-08 06:00:00 TS 12.1667 124.533 main 0 0 O_OO__________ jtwc_wp WP291999 12.4000 124.100 35 0 12.0000 124.700 1 29 995 12.1000 124.800 TD 30 994 12 285
1999310N09138 1999 96 WP MM FRANKIE 1999-11-08 09:00:00 TS 12.2373 123.979 main 11 0 P_PP__________ WP291999 12.3745 123.537 35 0 12.1074 124.207 1 29 995 12.2299 124.192 TD 30 994 10 274
1999310N09138 1999 96 WP MM FRANKIE 1999-11-08 12:00:00 TS 12.2333 123.500 main 0 0 O_OO__________ jtwc_wp WP291999 12.2000 123.200 35 0 12.2000 123.700 1 29 995 12.3000 123.600 TD 30 994 10 273
1999310N09138 1999 96 WP MM FRANKIE 1999-11-08 15:00:00 TS 12.2893 122.992 main 24 24 P_PP__________ WP291999 12.1924 122.940 32 -1 12.3377 123.090 1 29 996 12.3377 122.945 TD 30 994 9 275
1999310N09138 1999 96 WP MM FRANKIE 1999-11-08 18:00:00 TS 12.3000 122.633 main 66 55 O_OO__________ jtwc_wp WP291999 12.2000 122.800 30 -1 12.4000 122.600 1 29 998 12.3000 122.500 TD 30 994 5 256
1999310N09138 1999 96 WP MM FRANKIE 1999-11-08 21:00:00 TS 12.1707 122.507 main 55 46 P_PP__________ WP291999 12.1274 122.683 30 -1 12.2648 122.372 1 26 999 12.1198 122.465 TD 27 996 2 191
1999310N09138 1999 96 WP MM FRANKIE 1999-11-09 00:00:00 TS 12.0667 122.600 main 49 44 O_OO__________ jtwc_wp WP291999 12.1000 122.700 30 -1 12.1000 122.400 1 23 1000 12.0000 122.700 TD 25 998 3 94
1999310N09138 1999 96 WP MM FRANKIE 1999-11-09 03:00:00 TS 12.1459 122.852 main 34 10 P_PP__________ WP291999 12.2276 122.927 30 -1 12.0550 122.618 1 23 1000 12.1551 123.012 TD 25 998 7 67
1999310N09138 1999 96 WP MM FRANKIE 1999-11-09 06:00:00 TS 12.3182 123.218 main 10 0 O_OO__________ jtwc_wp WP291999 12.4000 123.200 30 -1 12.1000 123.000 1 23 1000 12.4000 123.400 TD 25 998 7 63
1999310N09138 1999 96 WP MM FRANKIE 1999-11-09 09:00:00 TS 12.4715 123.520 main 10 10 P_PP__________ WP291999 12.5150 123.330 27 -1 12.2276 123.440 1 21 1002 12.5500 123.750 TD 25 998 6 60
1999310N09138 1999 96 WP MM FRANKIE 1999-11-09 12:00:00 TS 12.6222 123.767 main 11 0 O_OO__________ jtwc_wp WP291999 12.6000 123.400 25 -1 12.4000 123.900 0 19 1004 12.7000 124.100 TD 25 998 5 55
1999310N09138 1999 96 WP MM FRANKIE 1999-11-09 15:00:00 NR 12.7675 123.958 main 0 0 P__P__________ WP291999 12.6500 123.458 25 -1 0 12.8850 124.458 TD 25 998 4 49
1999310N09138 1999 96 WP MM FRANKIE 1999-11-09 18:00:00 NR 12.8714 124.057 main 0 0 O__O__________ jtwc_wp WP291999 12.7000 123.500 25 -1 13.1000 124.800 TD 25 998 2 29
1999310N09138 1999 96 WP MM FRANKIE 1999-11-09 21:00:00 NR 12.9758 124.070 main 0 0 P__P__________ WP291999 12.7925 123.550 22 -1 13.3425 125.110 TD 25 998 2 0
1999310N09138 1999 96 WP MM FRANKIE 1999-11-10 00:00:00 NR 13.0750 124.050 main 11 0 O__O__________ jtwc_wp WP291999 12.9000 123.600 20 -1 13.6000 125.400 TD 25 998 4 274
1999310N09138 1999 96 WP MM FRANKIE 1999-11-10 03:00:00 NR 13.0025 123.650 main 0 0 P_____________ WP291999 13.0025 123.650 17 -1 TD 3 274
1999310N09138 1999 96 WP MM FRANKIE 1999-11-10 06:00:00 NR 13.1000 123.700 main 0 O_____________ jtwc_wp WP291999 13.1000 123.700 15 -1 2 29

デジタル台風データ・検索

IBTrACS Databaseについて

本データベースは、米国NOAAが公開する1842年以降の世界の熱帯低気圧のベストトラックデータアーカイブInternational Best Track Archive for Climate Stewardship (IBTrACS)を、ウェブで閲覧しやすい形式に変換したものです。

最終更新日:2021-10-19